Preview of NWS' New Version of Forecast
This preview is not operational and should not be used for support decisions.

Terminal Aerodrome Forecast (TAF)

Issued by National Weather Service (NWS)

                            
000
FTUS42 KCAE 242324
TAFOGB
TAF
KOGB 242324Z 2500/2524 04010KT P6SM BKN015
     FM250400 04008KT P6SM OVC007
     FM251400 04008KT P6SM BKN025=